• Join FlightAware (Why Join?)
  • Login
  • US Flag 
11:27PM EDT


 

Airport Tracker/Info


-or-


 

Live Flight TrackerFlight Track Log ✈ N431EH ✈ 29-Apr-2014 ✈ KRWL - KCYS

Flight Track Log - Related Links

Times and Time Zones

All times are in EDT time to prevent confusion due to time zone crossing. See the N431EH flight status page for this flight to view local times or setup timezone preferences in your user account.

Time Position Orientation Groundspeed Altitude Reporting Facility
EDT Latitude Longitude Course Direction KTS MPH feet Rate Location/Type
02:29PM 41.7972 -107.0925 114° Southeast 293 337 10,200  Level Denver Center
02:30PM 41.7717 -106.9889 108° East 299 344 11,100 2,160 Climbing Denver Center
02:31PM 41.7394 -106.8706 110° East 336 387 14,700 1,800 Climbing Denver Center
02:35PM 41.6208 -106.5287 114° Southeast  Level FlightAware Approximate
02:37PM 41.5136 -106.0902 111° Southeast 415 478 23,000  Level FlightAware ADS-B (KEIK)
02:38PM 41.4790 -105.9731 111° Southeast 416 479 23,000 -420 Level FlightAware ADS-B (KEIK)
02:38PM 41.4563 -105.8963 111° Southeast 410 472 22,500 -2,040 Descending FlightAware ADS-B (KEIK)
02:39PM 41.4349 -105.8239 112° Southeast 408 470 20,800 -2,820 Descending FlightAware ADS-B (KEIK)
02:39PM 41.4091 -105.7374 112° Southeast 401 461 19,400 -2,880 Descending FlightAware ADS-B (KEIK)
02:40PM 41.3872 -105.6639 112° Southeast 392 451 17,700 -3,000 Descending FlightAware ADS-B (KEIK)
02:41PM 41.3613 -105.5774 112° Southeast 386 444 15,900 -2,580 Descending FlightAware ADS-B (KEIK)
02:41PM 41.3314 -105.4782 112° Southeast 364 419 14,100 -2,100 Descending FlightAware ADS-B (KEIK)
02:42PM 41.3089 -105.4036 112° Southeast 342 394 12,900 -1,740 Descending FlightAware ADS-B (KEIK)
02:43PM 41.2931 -105.3516 112° Southeast 325 374 11,900 -1,320 Descending FlightAware ADS-B (KEIK)
02:43PM 41.2574 -105.2474 117° Southeast 309 356 11,100 -900 Descending FlightAware ADS-B (KEIK)
02:44PM 41.2389 -105.2004 118° Southeast 312 359 10,800 -180 Descending FlightAware ADS-B (KEIK)
02:45PM 41.2135 -105.1353 118° Southeast 323 372 10,900 60 Climbing FlightAware ADS-B (KEIK)
02:45PM 41.1906 -105.0773 118° Southeast 327 376 10,900 -420 Level FlightAware ADS-B (KEIK)
02:46PM 41.1676 -105.0189 118° Southeast 331 381 10,500 -1,020 Descending FlightAware ADS-B (KEIK)
02:46PM 41.1454 -104.9623 118° Southeast 320 368 9,900 -1,080 Descending FlightAware ADS-B (KEIK)
02:46PM 41.1319 -104.9282 118° Southeast 309 356 9,600 -960 Descending FlightAware ADS-B (KEIK)
02:47PM 41.1196 -104.8972 118° Southeast 302 348 9,300 -1,020 Descending FlightAware ADS-B (KEIK)
02:47PM 41.1115 -104.8766 118° Southeast 298 343 8,800 -1,140 Descending FlightAware ADS-B (KEIK)
02:48PM 41.0937 -104.8316 118° Southeast 286 329 8,400 -600 Descending FlightAware ADS-B (KEIK)
02:48PM 41.0808 -104.7993 118° Southeast 257 296 8,400  Level FlightAware ADS-B (KEIK)
02:48PM 41.0666 -104.7614 105° East 220 253 8,400 -600 Level FlightAware ADS-B (KEIK)
02:48PM 41.0674 -104.7432 64° Northeast 171 197 8,100 -1,200 Descending FlightAware ADS-B (KLHQ)
02:49PM 41.0690 -104.7397 55° Northeast 162 186 8,000 -900 Descending FlightAware ADS-B (KEIK)
02:49PM 41.0813 -104.7338 356° North 142 163 7,700 -840 Descending FlightAware ADS-B (KEIK)
02:49PM 41.0883 -104.7356 341° North 142 163 7,600 -540 Descending FlightAware ADS-B (KEIK)
02:49PM 41.0952 -104.7409 319° Northwest 141 162 7,500 -780 Descending FlightAware ADS-B (KLHQ)
02:50PM 41.1050 -104.7529 316° Northwest 122 140 7,200 -660 Descending FlightAware ADS-B (KLHQ)
02:50PM 41.1111 -104.7609 316° Northwest 120 138 7,100 -600 Descending FlightAware ADS-B (KLHQ)
02:50PM 41.1186 -104.7704 316° Northwest 112 129 6,800 -660 Descending FlightAware ADS-B (KLHQ)
02:51PM 41.1273 -104.7818 316° Northwest 99 114 6,700 -480 Descending FlightAware ADS-B (KLHQ)
02:51PM 41.1338 -104.7904 316° Northwest 97 112 6,500 -600 Descending FlightAware ADS-B (KLHQ)
02:51PM 41.1406 -104.7992 316° Northwest 96 110 6,300 -660 Descending FlightAware ADS-B (KLHQ)
02:52PM 41.1466 -104.8069 316° Northwest 98 113 6,100 -660 Descending FlightAware ADS-B (KLHQ)
02:54PM 41.1500 -104.8000 111° Southeast  Level FlightAware Approximate
02:55PM 41.1556 -104.8105 North  Level Estimated
02:56PM 41.1556 -104.8105 111° Southeast  Level Estimated
02:57PM 41.1556 -104.8105 126° Southeast  Level Estimated